Greenville, Mississippi
Current Conditions -  °F | °C
As of 2:14 AM on Monday 22 Dec 2014 (Local Time) from KGLH Reporting Station
Haze Haze  
Wind Chill: 50°   Ceiling: 500
Heat Index: 50°   Visibility: 5mi
Dew Point: 48°   Wind: 10mph
Humidity: 93%   Direction: 150°SSE
Pressure: 29.88"   Gusts: NA
Location:  33.4°N, 91.04°W
Report Text: KGLH 220814Z AUTO 15009KT 5SM BR OVC005 10/09 A2988 RMK AO2 T01000089
Loading
Personal Weather Stations






























Interactive Weather Map New forecast layout! Learn more

10-Day Weather Forecast

Advertisements
Track Severe Weather on mobile